Metar Aviation Weather Data KVNC

70°F Temp
54°F Dewpoint
% Humidity
Temperature
7 MPH
11 KM/H
6 KTS
250°
West South
West

Wind Speed
Clear
Conditions
Pressure 1022.02 (hPa) - 30.18 (in)
Visibility 10.0 (mi) - 16 (km)

Current Conditions
KVNC
Metar :KVNC 232255Z AUTO 25006KT 10SM CLR 21/12 A3018 RMK AO2
Sat 23rd March 18:55 pm

  Metar Aviation API Data Provided by https://www.checkwx.com/ PHP scripts by weather34.com ©2019